Time;durP1;ratioP1;P1;durP2;ratioP2;P2;SDS_P1;SDS_P2;PMS_P1;PMS_P2;Temp;Humidity;BMP_temperature;BMP_pressure;BME280_temperature;BME280_humidity;BME280_pressure;Samples;Min_cycle;Max_cycle;Signal;HPM_P1;HPM_P2
2021/01/24 00:01:14;;;;;;;42.27;17.20;;;;;;;4.97;93.76;100357.50;1775765;80;21264;-33
2021/01/24 00:03:42;;;;;;;40.00;17.65;;;;;;;4.97;93.76;100351.08;1775788;80;20947;-33
2021/01/24 00:06:10;;;;;;;50.80;18.65;;;;;;;4.98;93.72;100350.23;1775920;80;21050;-33
2021/01/24 00:08:38;;;;;;;40.60;18.32;;;;;;;4.97;93.73;100350.24;1775872;80;20923;-34
2021/01/24 00:11:07;;;;;;;55.78;19.15;;;;;;;4.94;93.65;100347.67;1775837;80;20962;-35
2021/01/24 00:13:35;;;;;;;42.80;17.20;;;;;;;4.94;93.62;100342.10;1775882;80;21277;-33
2021/01/24 00:16:04;;;;;;;42.83;18.00;;;;;;;4.94;93.62;100342.10;1775818;80;20888;-34
2021/01/24 00:18:32;;;;;;;43.58;19.48;;;;;;;4.95;93.57;100337.40;1775908;80;20908;-33
2021/01/24 00:20:59;;;;;;;44.83;19.42;;;;;;;4.94;93.52;100335.69;1779320;80;21096;-33
2021/01/24 00:23:27;;;;;;;52.08;17.85;;;;;;;4.93;93.54;100334.41;1793030;80;20978;-33
2021/01/24 00:25:55;;;;;;;50.75;18.27;;;;;;;4.94;93.49;100335.69;1792935;80;21134;-33
2021/01/24 00:31:03;;;;;;;55.50;24.10;;;;;;;4.97;93.47;100322.86;1816169;79;22557;-33
2021/01/24 00:33:30;;;;;;;55.52;21.27;;;;;;;4.93;93.45;100325.44;1789390;80;20915;-32
2021/01/24 00:35:58;;;;;;;47.40;20.00;;;;;;;4.94;93.45;100316.45;1789275;80;21163;-32
2021/01/24 00:38:26;;;;;;;45.43;21.27;;;;;;;4.97;93.50;100319.45;1789243;80;20986;-33
2021/01/24 00:40:55;;;;;;;51.18;21.75;;;;;;;4.99;93.50;100316.02;1789359;80;21017;-33
2021/01/24 00:43:23;;;;;;;57.43;22.00;;;;;;;5.01;93.45;100314.76;1789230;80;21025;-34
2021/01/24 00:45:51;;;;;;;59.03;22.77;;;;;;;5.00;93.30;100307.47;1789281;80;21006;-34
2021/01/24 00:48:20;;;;;;;46.53;20.43;;;;;;;5.03;93.45;100300.22;1789317;80;21326;-34
2021/01/24 00:50:48;;;;;;;47.17;21.10;;;;;;;5.06;93.48;100303.23;1789215;80;20958;-35
2021/01/24 00:53:16;;;;;;;50.35;20.55;;;;;;;5.10;93.45;100300.66;1789385;80;21030;-34
2021/01/24 00:55:45;;;;;;;54.95;20.82;;;;;;;5.11;93.33;100298.95;1789195;80;20998;-34
2021/01/24 00:58:13;;;;;;;57.80;24.87;;;;;;;5.11;93.27;100295.95;1789213;80;21143;-33
2021/01/24 01:00:41;;;;;;;60.40;22.00;;;;;;;5.12;93.26;100295.53;1789138;80;21364;-34
2021/01/24 01:03:09;;;;;;;53.60;21.33;;;;;;;5.11;93.23;100298.52;1789175;80;20947;-33
2021/01/24 01:05:39;;;;;;;50.05;23.90;;;;;;;5.13;93.13;100285.70;1789220;80;20939;-33
2021/01/24 01:08:07;;;;;;;46.15;24.30;;;;;;;5.13;93.12;100294.23;1789012;80;21545;-34
2021/01/24 01:10:35;;;;;;;55.58;22.40;;;;;;;5.17;93.09;100292.10;1789260;80;20994;-34
2021/01/24 01:13:03;;;;;;;44.42;19.95;;;;;;;5.18;93.21;100300.67;1789221;80;21262;-33
2021/01/24 01:15:31;;;;;;;37.28;18.65;;;;;;;5.18;93.02;100304.11;1789092;80;20931;-33
2021/01/24 01:17:59;;;;;;;52.93;20.02;;;;;;;5.21;92.95;100298.55;1789168;80;21000;-33
2021/01/24 01:20:28;;;;;;;53.35;20.32;;;;;;;5.23;92.95;100301.97;1789297;80;21017;-33
2021/01/24 01:22:56;;;;;;;51.83;19.98;;;;;;;5.24;92.89;100301.95;1789323;80;21003;-33
2021/01/24 01:25:24;;;;;;;51.55;19.82;;;;;;;5.24;92.82;100308.81;1789209;80;22570;-35
2021/01/24 01:27:52;;;;;;;41.25;18.48;;;;;;;5.26;92.80;100302.81;1789168;80;20943;-33
2021/01/24 01:30:21;;;;;;;47.53;19.02;;;;;;;5.26;92.70;100301.97;1786272;80;20924;-32
2021/01/24 01:32:49;;;;;;;49.27;19.82;;;;;;;5.29;92.77;100310.95;1784233;80;21418;-33
2021/01/24 01:35:17;;;;;;;45.48;18.10;;;;;;;5.30;92.71;100309.69;1784318;80;21478;-33
2021/01/24 01:37:45;;;;;;;40.10;16.93;;;;;;;5.33;92.71;100308.81;1784280;80;21200;-33
2021/01/24 01:40:14;;;;;;;53.65;19.15;;;;;;;5.38;92.67;100310.11;1784008;80;21141;-33
2021/01/24 01:42:42;;;;;;;47.25;19.07;;;;;;;5.39;92.60;100308.81;1783712;80;20971;-32
2021/01/24 01:45:11;;;;;;;37.15;16.75;;;;;;;5.41;92.53;100310.95;1783603;80;20904;-33
2021/01/24 01:47:40;;;;;;;47.03;18.67;;;;;;;5.44;92.45;100313.95;1783620;80;20904;-32
2021/01/24 01:50:10;;;;;;;43.52;17.35;;;;;;;5.46;92.34;100311.83;1783554;80;21246;-33
2021/01/24 01:52:38;;;;;;;38.83;16.62;;;;;;;5.46;92.23;100305.41;1783600;80;20916;-34
2021/01/24 01:55:08;;;;;;;39.48;16.23;;;;;;;5.47;92.12;100306.25;1755499;80;20991;-33
2021/01/24 01:57:36;;;;;;;39.73;18.50;;;;;;;5.49;92.04;100306.27;1783591;80;21522;-33
2021/01/24 02:00:06;;;;;;;40.50;19.05;;;;;;;5.49;91.93;100307.10;1783670;80;21018;-32
2021/01/24 02:03:02;;;;;;;40.28;17.57;;;;;;;5.50;91.88;100310.55;1783321;80;22261;-33
2021/01/24 02:05:39;;;;;;;37.48;17.05;;;;;;;5.50;91.72;100309.26;1783594;80;21077;-34
2021/01/24 02:08:38;;;;;;;41.85;17.65;;;;;;;5.50;91.62;100313.11;1783706;80;20971;-33
2021/01/24 02:11:26;;;;;;;43.28;18.17;;;;;;;5.50;91.55;100314.39;1783556;80;20983;-33
2021/01/24 02:14:42;;;;;;;40.33;17.50;;;;;;;5.46;91.35;100309.27;1780307;80;21025;-33
2021/01/24 02:17:13;;;;;;;44.85;19.17;;;;;;;5.45;91.30;100313.09;1783847;80;22769;-34
2021/01/24 02:20:09;;;;;;;46.37;19.37;;;;;;;5.44;91.24;100322.53;1783570;80;20951;-33
2021/01/24 02:22:39;;;;;;;38.75;18.40;;;;;;;5.41;91.08;100311.39;1783306;80;20940;-33
2021/01/24 02:25:22;;;;;;;46.33;17.52;;;;;;;5.38;91.10;100321.22;1783547;80;20995;-33
2021/01/24 02:28:00;;;;;;;41.83;17.32;;;;;;;5.38;90.93;100320.38;1783780;80;21433;-34
2021/01/24 02:30:35;;;;;;;51.75;21.15;;;;;;;5.35;90.85;100321.22;1779248;80;22288;-33
2021/01/24 02:33:09;;;;;;;56.08;21.12;;;;;;;5.33;90.90;100329.34;1775118;80;20991;-32
2021/01/24 02:35:45;;;;;;;45.63;19.40;;;;;;;5.33;90.87;100334.48;1775049;80;20907;-33
2021/01/24 02:38:13;;;;;;;45.63;17.57;;;;;;;5.32;90.79;100323.78;1775235;80;21549;-33
2021/01/24 02:40:41;;;;;;;39.98;18.15;;;;;;;5.31;90.67;100328.08;1775065;80;20880;-33
2021/01/24 02:43:10;;;;;;;43.33;18.50;;;;;;;5.25;90.77;100325.92;1775044;80;21361;-33
2021/01/24 02:45:43;;;;;;;37.50;15.95;;;;;;;5.25;90.77;100325.92;1753677;80;20951;-33
2021/01/24 02:48:13;;;;;;;34.45;16.85;;;;;;;5.26;90.47;100322.50;1775055;80;21030;-33
2021/01/24 02:50:41;;;;;;;44.18;18.80;;;;;;;5.23;90.50;100317.38;1775067;80;21518;-33
2021/01/24 02:53:09;;;;;;;39.50;17.00;;;;;;;5.22;90.42;100319.51;1775029;80;20920;-33
2021/01/24 02:55:37;;;;;;;31.37;15.80;;;;;;;5.20;90.31;100319.94;1753303;80;21364;-33
2021/01/24 02:58:05;;;;;;;42.80;17.12;;;;;;;5.17;90.28;100318.20;1774984;80;21058;-32
2021/01/24 03:00:34;;;;;;;35.05;17.02;;;;;;;5.18;90.32;100314.78;1775057;80;21367;-32
2021/01/24 03:03:03;;;;;;;35.40;16.87;;;;;;;5.17;90.28;100313.91;1774882;80;20916;-33
2021/01/24 03:05:31;;;;;;;36.90;16.35;;;;;;;5.17;90.17;100327.19;1775055;80;21012;-32
2021/01/24 03:07:59;;;;;;;40.25;17.48;;;;;;;5.11;90.02;100322.05;1775023;80;21366;-33
2021/01/24 03:10:27;;;;;;;42.65;18.48;;;;;;;5.11;90.03;100329.31;1775014;80;20998;-33
2021/01/24 03:13:15;;;;;;;37.75;16.87;;;;;;;5.06;89.93;100329.73;1775029;80;21015;-34
2021/01/24 03:15:44;;;;;;;35.25;16.42;;;;;;;4.99;89.73;100338.27;1775046;80;21007;-34
2021/01/24 03:18:16;;;;;;;38.53;17.48;;;;;;;4.99;89.73;100338.27;1775132;80;20976;-32
2021/01/24 03:20:44;;;;;;;40.43;18.52;;;;;;;4.92;89.87;100336.11;1774902;80;21444;-34
2021/01/24 03:23:12;;;;;;;38.10;18.35;;;;;;;4.86;89.91;100339.50;1753505;80;20940;-33
2021/01/24 03:25:40;;;;;;;35.78;16.85;;;;;;;4.83;89.89;100338.22;1753428;80;20943;-33
2021/01/24 03:28:08;;;;;;;37.45;17.85;;;;;;;4.80;89.92;100327.95;1774903;80;20937;-33
2021/01/24 03:30:36;;;;;;;43.42;18.25;;;;;;;4.78;89.98;100332.63;1753788;80;21054;-32
2021/01/24 03:33:05;;;;;;;43.13;16.75;;;;;;;4.75;89.90;100327.92;1785422;80;21138;-33
2021/01/24 03:35:32;;;;;;;30.27;15.35;;;;;;;4.75;90.00;100327.08;1785481;80;20920;-33
2021/01/24 03:38:01;;;;;;;30.90;16.93;;;;;;;4.75;89.95;100329.65;1785456;80;21449;-33
2021/01/24 03:40:29;;;;;;;43.40;17.60;;;;;;;4.74;89.96;100322.80;1785510;80;20991;-34
2021/01/24 03:42:58;;;;;;;32.95;17.65;;;;;;;4.72;89.97;100329.64;1785481;80;21006;-34
2021/01/24 03:45:27;;;;;;;34.00;16.27;;;;;;;4.73;89.92;100331.35;1785489;80;21275;-33
2021/01/24 03:47:55;;;;;;;31.90;15.80;;;;;;;4.73;89.84;100333.92;1785422;80;21509;-34
2021/01/24 03:50:22;;;;;;;34.23;16.30;;;;;;;4.67;89.70;100325.77;1785469;80;20943;-33
2021/01/24 03:52:50;;;;;;;40.55;16.97;;;;;;;4.67;89.75;100330.02;1785527;80;20939;-34
2021/01/24 03:55:18;;;;;;;34.27;16.65;;;;;;;4.62;89.72;100333.00;1785467;80;20963;-33
2021/01/24 03:57:46;;;;;;;29.02;14.73;;;;;;;4.60;89.72;100329.17;1785517;80;21493;-33
2021/01/24 04:00:15;;;;;;;28.65;15.15;;;;;;;4.57;89.69;100330.00;1730912;80;21082;-32
2021/01/24 04:02:43;;;;;;;30.75;14.63;;;;;;;4.53;89.66;100324.43;1785525;80;21417;-34
2021/01/24 04:05:11;;;;;;;35.28;14.60;;;;;;;4.48;89.54;100320.12;1785498;80;21050;-32
2021/01/24 04:07:40;;;;;;;25.88;14.70;;;;;;;4.46;89.50;100329.11;1785520;80;20935;-33
2021/01/24 04:10:10;;;;;;;30.02;15.68;;;;;;;4.35;89.54;100320.08;1785397;80;21198;-34
2021/01/24 04:12:38;;;;;;;34.03;17.32;;;;;;;4.34;89.43;100325.19;1785378;80;20975;-33
2021/01/24 04:15:08;;;;;;;34.73;15.13;;;;;;;4.25;89.01;100319.58;1785528;80;20979;-33
2021/01/24 04:17:36;;;;;;;35.68;16.25;;;;;;;4.25;89.01;100319.58;1785414;80;20975;-33
2021/01/24 04:20:06;;;;;;;32.88;15.68;;;;;;;4.10;89.24;100322.51;1785440;80;21039;-33
2021/01/24 04:22:33;;;;;;;35.33;16.62;;;;;;;3.98;89.34;100316.88;1785450;80;21312;-33
2021/01/24 04:25:01;;;;;;;40.55;17.07;;;;;;;3.98;89.34;100330.97;1785421;80;20947;-33
2021/01/24 04:27:30;;;;;;;29.37;16.20;;;;;;;3.92;89.54;100320.69;1785537;80;21240;-34
2021/01/24 04:29:58;;;;;;;33.45;16.37;;;;;;;3.95;89.63;100321.98;1785405;80;21179;-34
2021/01/24 04:32:26;;;;;;;31.52;17.35;;;;;;;3.90;89.81;100325.35;1780572;80;20967;-33
2021/01/24 04:34:54;;;;;;;32.95;16.42;;;;;;;3.86;89.92;100318.06;1780449;80;21200;-33
2021/01/24 04:37:23;;;;;;;40.73;17.85;;;;;;;3.80;89.93;100319.30;1780396;80;21450;-33
2021/01/24 04:39:51;;;;;;;32.17;17.15;;;;;;;3.83;90.08;100311.23;1780467;80;21007;-33
2021/01/24 04:42:19;;;;;;;34.90;17.25;;;;;;;3.85;90.09;100312.09;1780517;80;21192;-34
2021/01/24 04:44:47;;;;;;;29.67;15.80;;;;;;;3.92;90.06;100301.89;1780465;80;20995;-33
2021/01/24 04:47:16;;;;;;;36.03;16.40;;;;;;;3.92;90.06;100301.89;1780432;80;22555;-33
2021/01/24 04:49:46;;;;;;;31.00;16.75;;;;;;;3.95;89.92;100299.34;1780359;80;21089;-34
2021/01/24 04:52:16;;;;;;;31.97;16.97;;;;;;;3.95;89.77;100311.74;1750635;80;21046;-34
2021/01/24 04:54:45;;;;;;;34.92;15.18;;;;;;;3.97;89.64;100313.02;1780327;80;21031;-34
2021/01/24 04:57:14;;;;;;;32.95;16.25;;;;;;;3.99;89.51;100317.31;1780485;80;21030;-33
2021/01/24 04:59:42;;;;;;;38.50;16.42;;;;;;;3.99;89.39;100317.72;1780507;80;22715;-34
2021/01/24 05:02:11;;;;;;;30.80;15.32;;;;;;;4.02;89.29;100315.17;1780355;80;20892;-33
2021/01/24 05:04:39;;;;;;;33.83;15.95;;;;;;;4.02;89.13;100316.05;1780578;80;21545;-33
2021/01/24 05:07:08;;;;;;;29.70;14.25;;;;;;;4.01;88.97;100313.05;1780426;80;21003;-34
2021/01/24 05:09:36;;;;;;;30.55;16.40;;;;;;;3.97;88.96;100315.17;1780468;80;20991;-33
2021/01/24 05:12:09;;;;;;;30.15;15.68;;;;;;;3.93;88.92;100314.72;1780389;80;21338;-34
2021/01/24 05:14:39;;;;;;;35.38;15.03;;;;;;;3.88;88.90;100310.84;1750522;80;21003;-34
2021/01/24 05:17:07;;;;;;;33.40;15.23;;;;;;;3.85;88.92;100308.67;1750848;80;20983;-34
2021/01/24 05:19:35;;;;;;;36.50;16.70;;;;;;;3.83;89.19;100325.32;1780594;80;21043;-33
2021/01/24 05:22:05;;;;;;;29.90;14.53;;;;;;;3.83;89.19;100325.32;1780603;80;21034;-33
2021/01/24 05:24:34;;;;;;;30.15;15.65;;;;;;;3.85;89.06;100321.47;1750572;80;21210;-34
2021/01/24 05:27:10;;;;;;;33.13;15.20;;;;;;;3.85;88.97;100326.19;1726442;80;20923;-33
2021/01/24 05:29:43;;;;;;;29.27;16.60;;;;;;;3.88;88.93;100325.33;1780637;80;20944;-33
2021/01/24 05:32:11;;;;;;;31.95;15.93;;;;;;;3.90;88.88;100325.35;1776357;80;21042;-34
2021/01/24 05:34:43;;;;;;;31.65;15.10;;;;;;;3.96;88.77;100325.39;1775202;80;20928;-33
2021/01/24 05:37:11;;;;;;;35.38;15.23;;;;;;;3.96;88.77;100325.39;1775046;80;21429;-33
2021/01/24 05:39:39;;;;;;;33.53;16.20;;;;;;;4.00;88.65;100330.96;1775101;80;20979;-33
2021/01/24 05:42:07;;;;;;;33.63;16.95;;;;;;;4.06;88.27;100340.40;1728737;80;20983;-33
2021/01/24 05:44:35;;;;;;;37.38;14.58;;;;;;;4.15;88.04;100336.20;1775075;80;20995;-33
2021/01/24 05:47:04;;;;;;;34.38;14.10;;;;;;;4.35;87.25;100340.59;1753684;80;21592;-33
2021/01/24 05:49:32;;;;;;;35.65;15.15;;;;;;;4.35;87.25;100340.59;1775072;80;21327;-32
2021/01/24 05:52:05;;;;;;;48.55;14.83;;;;;;;4.46;87.02;100336.80;1775027;80;21137;-33
2021/01/24 05:54:42;;;;;;;32.78;13.95;;;;;;;4.57;86.67;100341.98;1775073;80;20920;-33
2021/01/24 05:57:13;;;;;;;32.78;13.13;;;;;;;4.67;85.88;100339.88;1774986;80;22312;-33
2021/01/24 05:59:55;;;;;;;40.25;14.20;;;;;;;4.78;85.63;100341.20;1775106;80;20948;-34
2021/01/24 06:02:26;;;;;;;27.02;12.20;;;;;;;4.86;84.94;100334.38;1775209;80;21158;-34
2021/01/24 06:04:55;;;;;;;30.68;11.75;;;;;;;4.96;84.33;100337.83;1775061;80;21087;-33
2021/01/24 06:07:23;;;;;;;22.98;11.48;;;;;;;5.03;83.79;100333.13;1775134;80;20880;-34
2021/01/24 06:09:53;;;;;;;17.07;11.35;;;;;;;5.09;83.43;100328.89;1775117;80;21087;-34
2021/01/24 06:12:23;;;;;;;21.10;11.12;;;;;;;5.13;82.74;100330.16;1775069;80;21122;-34
2021/01/24 06:14:52;;;;;;;21.07;11.10;;;;;;;5.20;82.52;100330.20;1775099;80;21291;-33
2021/01/24 06:17:38;;;;;;;19.85;10.32;;;;;;;5.28;82.03;100324.20;1775109;80;20928;-32
2021/01/24 06:20:08;;;;;;;20.17;9.93;;;;;;;5.39;81.45;100321.64;1775099;80;21050;-34
2021/01/24 06:23:09;;;;;;;17.77;9.88;;;;;;;5.39;81.45;100321.64;1775136;80;21003;-33
2021/01/24 06:25:41;;;;;;;20.15;9.03;;;;;;;5.44;80.83;100321.25;1775079;80;21039;-34
2021/01/24 06:28:24;;;;;;;18.20;9.78;;;;;;;5.51;80.50;100322.52;1775015;80;21531;-33
2021/01/24 06:30:52;;;;;;;14.78;9.75;;;;;;;5.57;80.09;100319.95;1774920;80;20955;-34
2021/01/24 06:33:21;;;;;;;19.73;9.33;;;;;;;5.65;79.80;100328.95;1775157;80;20999;-33
2021/01/24 06:36:00;;;;;;;15.58;8.40;;;;;;;5.68;79.45;100319.95;1775046;80;20889;-32
2021/01/24 06:38:38;;;;;;;17.62;8.68;;;;;;;5.74;78.75;100327.23;1775173;80;20971;-32
2021/01/24 06:41:11;;;;;;;16.85;9.80;;;;;;;5.78;78.67;100328.06;1775049;80;21374;-32
2021/01/24 06:43:51;;;;;;;16.20;9.25;;;;;;;5.80;78.32;100321.66;1775025;80;20936;-34
2021/01/24 06:46:30;;;;;;;17.45;9.28;;;;;;;5.82;78.30;100325.08;1774938;80;20904;-33
2021/01/24 06:48:58;;;;;;;17.02;8.25;;;;;;;5.85;77.85;100322.50;1774963;80;21026;-34
2021/01/24 06:51:40;;;;;;;15.68;8.08;;;;;;;5.87;77.72;100328.49;1775070;80;20991;-34
2021/01/24 06:54:16;;;;;;;12.33;8.13;;;;;;;5.86;77.52;100332.80;1775059;80;22243;-34
2021/01/24 06:56:52;;;;;;;13.15;8.68;;;;;;;5.86;77.56;100334.08;1773509;80;21224;-33
2021/01/24 06:59:28;;;;;;;12.35;6.85;;;;;;;5.84;77.88;100328.09;1774146;80;21043;-32
2021/01/24 07:02:28;;;;;;;7.22;5.70;;;;;;;5.84;77.65;100325.93;1774897;80;20992;-32
2021/01/24 07:05:19;;;;;;;10.15;5.92;;;;;;;5.84;77.84;100324.64;1774160;80;20987;-32
2021/01/24 07:07:49;;;;;;;10.43;6.72;;;;;;;5.81;77.67;100327.22;1775064;80;21472;-33
2021/01/24 07:10:41;;;;;;;13.00;6.05;;;;;;;5.79;77.49;100327.20;1774884;80;21047;-33
2021/01/24 07:13:30;;;;;;;8.58;5.50;;;;;;;5.80;77.07;100329.36;1774946;80;21058;-32
2021/01/24 07:16:01;;;;;;;8.45;5.67;;;;;;;5.80;77.07;100329.36;1775022;80;21011;-33
2021/01/24 07:18:38;;;;;;;16.67;5.55;;;;;;;5.78;77.25;100331.92;1775079;80;20995;-33
2021/01/24 07:21:05;;;;;;;8.63;4.97;;;;;;;5.75;76.85;100331.52;1774982;80;21481;-34
2021/01/24 07:23:33;;;;;;;7.20;4.37;;;;;;;5.75;76.95;100326.38;1774912;80;21043;-33
2021/01/24 07:26:02;;;;;;;8.10;4.08;;;;;;;5.77;76.95;100331.49;1774978;80;21080;-33
2021/01/24 07:28:30;;;;;;;5.22;4.72;;;;;;;5.78;77.17;100322.93;1775007;80;20924;-33
2021/01/24 07:31:05;;;;;;;7.45;4.42;;;;;;;5.78;76.93;100329.80;1774886;80;20948;-34
2021/01/24 07:33:34;;;;;;;8.80;4.92;;;;;;;5.78;77.01;100331.92;1774980;80;21423;-33
2021/01/24 07:36:04;;;;;;;11.85;4.25;;;;;;;5.75;76.94;100328.95;1753259;80;21007;-34
2021/01/24 07:38:33;;;;;;;5.28;3.85;;;;;;;5.74;76.95;100329.80;1775012;80;21304;-33
2021/01/24 07:41:01;;;;;;;7.40;4.12;;;;;;;5.77;77.13;100333.22;1774947;80;20881;-35
2021/01/24 07:43:29;;;;;;;5.72;4.60;;;;;;;5.75;77.31;100336.65;1775010;80;20900;-33
2021/01/24 07:45:57;;;;;;;7.80;4.28;;;;;;;5.74;77.31;100328.52;1774968;80;21192;-34
2021/01/24 07:48:25;;;;;;;5.50;3.35;;;;;;;5.77;77.21;100327.64;1774953;80;21010;-33
2021/01/24 07:50:53;;;;;;;6.08;3.95;;;;;;;5.78;77.13;100328.52;1774973;80;20936;-33
2021/01/24 07:53:21;;;;;;;9.75;4.33;;;;;;;5.81;77.32;100325.94;1775036;80;20936;-33
2021/01/24 07:55:49;;;;;;;9.58;4.20;;;;;;;5.84;77.38;100325.93;1753158;80;20987;-33
2021/01/24 07:58:17;;;;;;;5.03;3.60;;;;;;;5.88;77.15;100326.34;1775026;80;21204;-32
2021/01/24 08:00:46;;;;;;;7.03;3.05;;;;;;;5.93;76.91;100318.20;1774880;80;21016;-33
2021/01/24 08:03:23;;;;;;;4.08;3.27;;;;;;;5.96;76.78;100328.50;1753563;80;21039;-33
2021/01/24 08:05:51;;;;;;;12.98;4.47;;;;;;;5.98;76.74;100326.78;1753282;80;20912;-35
2021/01/24 08:08:20;;;;;;;11.63;4.35;;;;;;;6.00;76.54;100322.50;1775054;80;21030;-35
2021/01/24 08:10:49;;;;;;;5.40;3.67;;;;;;;6.06;76.70;100331.92;1774994;80;20928;-33
2021/01/24 08:13:18;;;;;;;16.42;3.35;;;;;;;6.09;76.62;100328.50;1753262;80;21034;-33
2021/01/24 08:15:46;;;;;;;10.72;4.08;;;;;;;6.11;76.38;100319.06;1774937;80;21007;-34
2021/01/24 08:18:14;;;;;;;15.20;4.25;;;;;;;6.16;76.44;100317.34;1752742;80;21538;-33
2021/01/24 08:20:42;;;;;;;7.25;3.67;;;;;;;6.21;76.14;100312.20;1775003;80;20908;-34
2021/01/24 08:23:10;;;;;;;5.60;3.47;;;;;;;6.24;75.95;100310.48;1774971;80;21299;-34
2021/01/24 08:25:38;;;;;;;6.97;3.90;;;;;;;6.30;75.91;100305.73;1753537;80;21002;-35
2021/01/24 08:28:07;;;;;;;22.50;3.85;;;;;;;6.36;75.73;100292.00;1774936;80;21011;-33
2021/01/24 08:30:38;;;;;;;6.85;3.60;;;;;;;6.39;75.68;100302.28;1753329;80;21003;-34
2021/01/24 08:33:13;;;;;;;30.35;4.30;;;;;;;6.43;75.38;100302.69;1774849;80;20967;-34
2021/01/24 08:35:42;;;;;;;4.87;2.98;;;;;;;6.51;75.07;100284.24;1754355;80;21441;-34
2021/01/24 08:38:13;;;;;;;7.50;3.75;;;;;;;6.52;75.09;100295.37;1774817;80;21036;-33
2021/01/24 08:40:41;;;;;;;6.60;3.80;;;;;;;6.57;75.03;100293.66;1775026;80;20935;-34
2021/01/24 08:43:09;;;;;;;3.67;3.05;;;;;;;6.58;74.90;100297.49;1774799;80;20924;-34
2021/01/24 08:45:37;;;;;;;5.55;3.27;;;;;;;6.64;74.90;100303.05;1774961;80;21114;-33
2021/01/24 08:48:07;;;;;;;8.88;4.17;;;;;;;6.66;74.72;100287.59;1775028;80;22178;-34
2021/01/24 08:50:37;;;;;;;5.78;4.50;;;;;;;6.68;74.77;100278.14;1753182;80;21625;-33
2021/01/24 08:53:06;;;;;;;7.28;4.58;;;;;;;6.71;74.70;100289.73;1775038;80;21022;-34
2021/01/24 08:55:48;;;;;;;11.48;3.62;;;;;;;6.71;74.44;100288.45;1775130;80;20935;-33
2021/01/24 08:58:25;;;;;;;10.40;3.35;;;;;;;6.77;74.40;100284.55;1774342;80;20951;-33
2021/01/24 09:01:11;;;;;;;20.23;3.92;;;;;;;6.81;74.32;100283.66;1773381;80;21333;-34
2021/01/24 09:03:39;;;;;;;7.72;4.10;;;;;;;6.90;74.30;100273.75;1775119;80;20935;-33
2021/01/24 09:06:17;;;;;;;8.60;3.17;;;;;;;6.99;73.79;100264.67;1753070;80;20944;-33
2021/01/24 09:08:50;;;;;;;5.67;3.02;;;;;;;7.04;73.68;100279.64;1774962;80;21023;-35
2021/01/24 09:11:18;;;;;;;4.62;3.10;;;;;;;7.11;73.40;100257.75;1775167;80;21006;-34
2021/01/24 09:13:46;;;;;;;5.62;3.65;;;;;;;7.17;73.26;100263.69;1753528;80;21298;-34
2021/01/24 09:16:14;;;;;;;6.47;3.33;;;;;;;7.23;73.11;100276.11;1753111;80;21327;-34
2021/01/24 09:18:42;;;;;;;8.78;3.22;;;;;;;7.26;72.79;100273.06;1775031;80;20943;-34
2021/01/24 09:21:10;;;;;;;7.37;3.75;;;;;;;7.31;72.26;100266.59;1775119;80;21169;-33
2021/01/24 09:23:39;;;;;;;11.38;4.08;;;;;;;7.32;72.37;100258.01;1775136;80;20979;-34
2021/01/24 09:26:06;;;;;;;12.58;3.72;;;;;;;7.35;72.09;100266.98;1775030;80;21278;-34
2021/01/24 09:28:34;;;;;;;8.00;3.90;;;;;;;7.37;72.01;100267.83;1775102;80;20920;-32
2021/01/24 09:31:02;;;;;;;5.90;3.30;;;;;;;7.36;71.81;100262.26;1774952;80;20880;-33
2021/01/24 09:33:30;;;;;;;3.85;3.17;;;;;;;7.39;72.01;100264.80;1779151;80;20975;-32
2021/01/24 09:35:58;;;;;;;7.62;3.30;;;;;;;7.45;71.92;100258.76;1780851;80;20935;-34
2021/01/24 09:38:26;;;;;;;8.03;3.85;;;;;;;7.43;71.55;100270.80;1780804;80;21197;-33
2021/01/24 09:40:54;;;;;;;7.72;3.90;;;;;;;7.45;71.67;100260.91;1780861;80;20931;-33
2021/01/24 09:43:23;;;;;;;11.12;3.83;;;;;;;7.48;71.38;100257.02;1780933;80;20939;-33
2021/01/24 09:45:52;;;;;;;6.28;3.87;;;;;;;7.56;70.76;100263.81;1780938;80;21517;-33
2021/01/24 09:48:20;;;;;;;9.80;3.85;;;;;;;7.56;70.64;100262.53;1781003;80;21407;-36
2021/01/24 09:50:48;;;;;;;8.38;3.40;;;;;;;7.57;70.32;100252.64;1780811;80;21131;-34
2021/01/24 09:53:16;;;;;;;4.67;3.45;;;;;;;7.59;70.46;100256.05;1780816;80;20987;-35
2021/01/24 09:55:43;;;;;;;6.60;3.40;;;;;;;7.62;70.40;100241.86;1780756;80;21495;-34
2021/01/24 09:58:11;;;;;;;8.13;3.87;;;;;;;7.65;69.83;100251.29;1780875;80;21077;-34
2021/01/24 10:00:40;;;;;;;8.60;4.05;;;;;;;7.68;69.58;100244.36;1780863;80;20915;-34
2021/01/24 10:03:10;;;;;;;10.98;4.08;;;;;;;7.71;69.50;100246.07;1780659;80;21192;-34
2021/01/24 10:05:40;;;;;;;7.25;3.60;;;;;;;7.73;69.31;100246.48;1780837;80;20999;-34
2021/01/24 10:08:08;;;;;;;8.20;3.92;;;;;;;7.75;68.99;100249.90;1753144;80;20939;-33
2021/01/24 10:10:36;;;;;;;6.62;4.08;;;;;;;7.78;69.01;100225.80;1780709;80;21046;-33
2021/01/24 10:13:04;;;;;;;13.90;4.33;;;;;;;7.82;69.03;100244.67;1780809;80;20927;-34
2021/01/24 10:15:31;;;;;;;10.10;4.22;;;;;;;7.81;69.02;100237.36;1780806;80;21273;-35
2021/01/24 10:17:59;;;;;;;7.72;4.10;;;;;;;7.83;68.90;100243.80;1780762;80;20939;-34
2021/01/24 10:20:28;;;;;;;19.07;4.37;;;;;;;7.85;69.01;100240.77;1780849;80;20956;-32
2021/01/24 10:22:56;;;;;;;9.45;3.83;;;;;;;7.85;68.76;100238.20;1780793;80;21011;-33
2021/01/24 10:25:24;;;;;;;11.97;4.00;;;;;;;7.87;68.71;100235.16;1780984;80;20903;-32
2021/01/24 10:27:52;;;;;;;10.58;4.47;;;;;;;7.90;68.72;100228.69;1780897;80;21386;-33
2021/01/24 10:30:21;;;;;;;8.63;4.03;;;;;;;7.90;68.75;100226.11;1780735;80;21746;-33
2021/01/24 10:32:50;;;;;;;12.73;3.62;;;;;;;7.89;68.76;100224.40;1779024;80;20928;-33
2021/01/24 10:35:18;;;;;;;5.70;4.08;;;;;;;7.88;68.82;100232.58;1775031;80;20995;-33
2021/01/24 10:37:46;;;;;;;11.80;4.17;;;;;;;7.90;68.88;100226.98;1775032;80;20983;-33
2021/01/24 10:40:15;;;;;;;7.20;3.77;;;;;;;7.91;68.78;100222.66;1775079;80;21720;-32
2021/01/24 10:42:45;;;;;;;10.85;4.30;;;;;;;7.91;68.47;100213.22;1774986;80;21026;-33
2021/01/24 10:45:14;;;;;;;7.90;3.47;;;;;;;7.85;68.79;100220.16;1775089;80;20983;-33
2021/01/24 10:47:42;;;;;;;7.95;4.47;;;;;;;7.85;68.79;100223.60;1774929;80;21431;-35
2021/01/24 10:50:13;;;;;;;6.65;3.62;;;;;;;7.84;69.08;100215.88;1775024;80;21046;-32
2021/01/24 10:52:41;;;;;;;10.05;3.72;;;;;;;7.76;69.00;100218.11;1775083;80;21206;-32
2021/01/24 10:55:09;;;;;;;6.53;3.72;;;;;;;7.73;69.34;100206.55;1774922;80;21118;-34
2021/01/24 10:57:38;;;;;;;8.65;3.35;;;;;;;7.70;69.34;100205.72;1775042;80;20981;-33
2021/01/24 11:00:07;;;;;;;13.05;4.72;;;;;;;7.65;69.56;100207.49;1774910;80;21007;-34
2021/01/24 11:02:35;;;;;;;9.20;4.78;;;;;;;7.59;69.77;100206.69;1774967;80;21063;-34
2021/01/24 11:05:05;;;;;;;11.78;4.37;;;;;;;7.56;69.90;100199.41;1774960;80;21257;-33
2021/01/24 11:07:34;;;;;;;6.62;3.62;;;;;;;7.56;69.87;100201.54;1774905;80;20987;-33
2021/01/24 11:10:06;;;;;;;7.85;4.00;;;;;;;7.56;70.00;100198.12;1774955;80;20979;-34
2021/01/24 11:12:34;;;;;;;8.73;4.12;;;;;;;7.53;70.09;100200.73;1775083;80;21443;-32
2021/01/24 11:15:02;;;;;;;5.97;3.40;;;;;;;7.52;70.10;100194.72;1774978;80;20928;-32
2021/01/24 11:17:30;;;;;;;7.95;3.87;;;;;;;7.50;70.42;100199.48;1775002;80;21235;-34
2021/01/24 11:19:59;;;;;;;13.03;4.37;;;;;;;7.46;70.43;100198.23;1774923;80;21034;-33
2021/01/24 11:22:27;;;;;;;8.95;3.55;;;;;;;7.43;70.73;100199.52;1774983;80;20998;-33
2021/01/24 11:24:55;;;;;;;7.62;3.65;;;;;;;7.47;70.43;100186.19;1774896;80;21015;-33
2021/01/24 11:27:23;;;;;;;8.00;4.12;;;;;;;7.44;69.99;100183.65;1775053;80;20933;-33
2021/01/24 11:29:51;;;;;;;9.63;3.83;;;;;;;7.37;70.28;100175.13;1774997;80;21143;-34
2021/01/24 11:32:19;;;;;;;9.38;4.10;;;;;;;7.35;70.23;100167.02;1774867;80;21011;-34
2021/01/24 11:34:48;;;;;;;8.18;3.45;;;;;;;7.31;70.20;100162.31;1751674;81;21274;-33
2021/01/24 11:37:16;;;;;;;11.08;3.70;;;;;;;7.28;70.36;100167.50;1754642;81;21027;-32
2021/01/24 11:39:44;;;;;;;15.85;4.45;;;;;;;7.25;69.93;100175.25;1754780;81;21034;-33
2021/01/24 11:42:12;;;;;;;8.10;4.30;;;;;;;7.24;70.16;100169.69;1754561;81;21624;-33